Terminal Aerodrome Forecast
Issued by NWS Cleveland, OH

Home | Current Version | Previous Version | Graphics & Text | Print | Product List | Glossary On
Versions: 1 2 3 4 5 6 7 8 9 10 11 12 13 14 15 16 17 18 19 20 21 22 23
000
FTUS41 KCLE 150540
TAFCLE
TAF
KCLE 150540Z 1506/1612 17010KT P6SM SCT100 BKN200 WS020/22040KT
     FM151000 20015G25KT P6SM BKN050
     FM151700 23025G40KT P6SM -SHRA OVC025
     FM151900 27025G35KT P6SM OVC025
     FM152200 27018G30KT P6SM BKN035
     FM160400 30014KT P6SM BKN025=

USA.gov is the U.S. government's official web portal to all federal, state and local government web resources and services.